createdAt,value
2023-03-26T00:01:30.029Z,7.20
2023-03-26T00:03:57.713Z,7.20
2023-03-26T00:06:28.743Z,7.20
2023-03-26T00:08:57.728Z,7.20
2023-03-26T00:11:28.045Z,7.20
2023-03-26T00:13:57.554Z,7.20
2023-03-26T00:16:28.381Z,7.20
2023-03-26T00:18:56.115Z,7.20
2023-03-26T00:21:28.772Z,7.20
2023-03-26T00:23:59.669Z,7.20
2023-03-26T00:26:31.042Z,7.20
2023-03-26T00:31:27.420Z,7.20
2023-03-26T00:33:55.489Z,7.20
2023-03-26T00:36:26.442Z,7.20
2023-03-26T00:38:54.325Z,7.20
2023-03-26T00:41:25.737Z,7.20
2023-03-26T00:43:57.072Z,7.20
2023-03-26T00:46:26.564Z,7.30
2023-03-26T00:48:53.906Z,7.30
2023-03-26T00:51:21.688Z,7.30
2023-03-26T00:53:50.343Z,7.30
2023-03-26T00:56:18.482Z,7.40
2023-03-26T00:58:47.461Z,7.30
2023-03-26T01:01:20.372Z,7.30
2023-03-26T01:04:04.823Z,7.30
2023-03-26T01:06:38.870Z,7.30
2023-03-26T01:09:18.548Z,7.20
2023-03-26T01:11:45.801Z,7.30
2023-03-26T01:14:23.414Z,7.20
2023-03-26T01:16:53.598Z,7.20
2023-03-26T01:19:33.860Z,7.20
2023-03-26T01:22:00.690Z,7.30
2023-03-26T01:24:28.104Z,7.20
2023-03-26T01:27:21.001Z,7.20
2023-03-26T01:29:59.576Z,7.20
2023-03-26T01:32:55.554Z,7.20
2023-03-26T01:35:44.109Z,7.20
2023-03-26T01:38:48.117Z,7.20
2023-03-26T01:41:43.807Z,7.20
2023-03-26T01:44:37.549Z,7.10
2023-03-26T01:47:06.299Z,7.10
2023-03-26T01:49:33.501Z,7.10
2023-03-26T01:52:00.573Z,7.10
2023-03-26T01:54:31.550Z,7.10
2023-03-26T01:57:34.799Z,7.10
2023-03-26T02:00:33.716Z,7.10
2023-03-26T02:03:30.351Z,7.10
2023-03-26T02:06:06.169Z,7.10
2023-03-26T02:08:46.471Z,7.10
2023-03-26T02:11:16.611Z,7.10
2023-03-26T02:13:46.322Z,7.10
2023-03-26T02:16:16.786Z,7.10
2023-03-26T02:18:45.876Z,7.10
2023-03-26T02:21:20.030Z,7.10
2023-03-26T02:24:02.490Z,7.10
2023-03-26T02:26:32.356Z,7.10
2023-03-26T02:29:01.613Z,7.10
2023-03-26T02:31:30.161Z,7.00
2023-03-26T02:33:57.158Z,7.00
2023-03-26T02:36:27.109Z,7.00
2023-03-26T02:38:57.712Z,7.00
2023-03-26T02:41:24.628Z,7.00
2023-03-26T02:43:51.513Z,7.00
2023-03-26T02:46:18.343Z,6.90
2023-03-26T02:48:47.491Z,7.00
2023-03-26T02:51:14.267Z,6.90
2023-03-26T02:53:41.179Z,6.90
2023-03-26T02:56:08.949Z,6.90
2023-03-26T02:58:35.658Z,6.90
2023-03-26T03:01:03.136Z,6.90
2023-03-26T03:03:30.338Z,6.90
2023-03-26T03:05:57.852Z,6.80
2023-03-26T03:08:28.488Z,6.80
2023-03-26T03:11:11.100Z,6.80
2023-03-26T03:13:37.874Z,6.70
2023-03-26T03:16:05.515Z,6.70
2023-03-26T03:18:32.242Z,6.70
2023-03-26T03:20:58.968Z,6.60
2023-03-26T03:23:25.812Z,6.60
2023-03-26T03:25:53.143Z,6.50
2023-03-26T03:28:20.317Z,6.60
2023-03-26T03:30:48.803Z,6.30
2023-03-26T03:33:15.694Z,7.00
2023-03-26T03:35:42.560Z,6.40
2023-03-26T03:38:11.073Z,6.40
2023-03-26T03:40:37.818Z,6.40
2023-03-26T03:43:04.649Z,6.30
2023-03-26T03:45:31.430Z,6.30
2023-03-26T03:47:58.348Z,6.30
2023-03-26T03:50:25.286Z,6.20
2023-03-26T03:52:52.034Z,6.20
2023-03-26T03:55:18.793Z,6.20
2023-03-26T03:57:46.042Z,6.10
2023-03-26T04:00:14.696Z,6.10
2023-03-26T04:02:42.869Z,6.10
2023-03-26T04:05:11.476Z,6.10
2023-03-26T04:07:39.199Z,6.10
2023-03-26T04:10:09.121Z,6.10
2023-03-26T04:12:35.873Z,6.00
2023-03-26T04:15:04.297Z,6.00
2023-03-26T04:17:31.124Z,5.90
2023-03-26T04:19:58.079Z,5.90
2023-03-26T04:22:34.247Z,5.80
2023-03-26T04:25:02.415Z,5.80
2023-03-26T04:27:37.838Z,5.70
2023-03-26T04:30:07.302Z,5.70
2023-03-26T04:32:34.841Z,5.70
2023-03-26T04:35:06.763Z,5.70
2023-03-26T04:37:40.037Z,5.60
2023-03-26T04:40:19.325Z,5.60
2023-03-26T04:42:46.572Z,5.50
2023-03-26T04:45:22.598Z,5.40
2023-03-26T04:47:50.802Z,5.50
2023-03-26T04:50:18.036Z,5.40
2023-03-26T04:52:45.434Z,5.40
2023-03-26T04:55:35.312Z,5.40
2023-03-26T04:58:05.334Z,5.40
2023-03-26T05:00:32.519Z,5.40
2023-03-26T05:02:59.449Z,5.30
2023-03-26T05:05:29.036Z,5.30
2023-03-26T05:07:55.891Z,5.30
2023-03-26T05:10:23.635Z,5.10
2023-03-26T05:12:50.418Z,5.30
2023-03-26T05:15:17.294Z,5.40
2023-03-26T05:17:44.370Z,5.40
2023-03-26T05:20:27.092Z,5.40
2023-03-26T05:22:53.851Z,5.40
2023-03-26T05:25:20.627Z,5.40
2023-03-26T05:27:47.899Z,5.40
2023-03-26T05:30:19.941Z,5.40
2023-03-26T05:32:52.026Z,5.40
2023-03-26T05:35:19.865Z,5.50
2023-03-26T05:37:49.619Z,5.50
2023-03-26T05:40:17.085Z,5.50
2023-03-26T05:42:45.332Z,5.50
2023-03-26T05:45:14.530Z,5.60
2023-03-26T05:47:41.426Z,5.60
2023-03-26T05:50:09.916Z,5.60
2023-03-26T05:52:37.104Z,5.60
2023-03-26T05:55:04.357Z,5.70
2023-03-26T05:57:31.728Z,5.70
2023-03-26T05:59:58.522Z,5.80
2023-03-26T06:02:25.361Z,5.80
2023-03-26T06:04:52.371Z,5.90
2023-03-26T06:07:19.752Z,6.00
2023-03-26T06:09:46.749Z,6.00
2023-03-26T06:12:14.830Z,6.10
2023-03-26T06:14:45.713Z,6.20
2023-03-26T06:17:12.653Z,6.30
2023-03-26T06:19:39.488Z,6.40
2023-03-26T06:22:06.419Z,6.50
2023-03-26T06:24:34.286Z,6.60
2023-03-26T06:27:01.037Z,6.60
2023-03-26T06:29:27.894Z,6.60
2023-03-26T06:31:54.867Z,6.60
2023-03-26T06:34:21.685Z,6.60
2023-03-26T06:36:48.824Z,6.70
2023-03-26T06:39:15.983Z,6.70
2023-03-26T06:41:42.768Z,6.80
2023-03-26T06:44:11.056Z,6.70
2023-03-26T06:46:37.981Z,6.70
2023-03-26T06:49:04.740Z,6.70
2023-03-26T06:51:31.517Z,6.70
2023-03-26T06:53:58.352Z,6.80
2023-03-26T06:56:25.162Z,6.90
2023-03-26T06:58:51.922Z,6.90
2023-03-26T07:01:18.697Z,6.90
2023-03-26T07:03:45.475Z,7.00
2023-03-26T07:06:12.254Z,7.00
2023-03-26T07:08:39.182Z,7.00
2023-03-26T07:11:06.367Z,7.10
2023-03-26T07:13:33.068Z,7.10
2023-03-26T07:15:59.895Z,7.10
2023-03-26T07:18:26.677Z,7.20
2023-03-26T07:20:54.035Z,7.20
2023-03-26T07:23:21.367Z,7.30
2023-03-26T07:25:49.569Z,7.30
2023-03-26T07:28:34.229Z,7.40
2023-03-26T07:31:22.779Z,7.50
2023-03-26T07:34:27.617Z,7.50
2023-03-26T07:37:03.624Z,7.60
2023-03-26T07:39:59.151Z,7.60
2023-03-26T07:43:08.748Z,7.60
2023-03-26T07:45:43.820Z,7.70
2023-03-26T07:48:19.075Z,7.70
2023-03-26T07:50:46.941Z,7.70
2023-03-26T07:53:14.626Z,7.80
2023-03-26T07:56:07.639Z,7.80
2023-03-26T07:58:46.184Z,7.80
2023-03-26T08:01:40.663Z,7.80
2023-03-26T08:04:37.020Z,7.90
2023-03-26T08:07:21.297Z,7.90
2023-03-26T08:10:17.273Z,7.90
2023-03-26T08:12:59.690Z,7.90
2023-03-26T08:15:47.539Z,8.00
2023-03-26T08:18:27.335Z,8.00
2023-03-26T08:21:39.499Z,8.00
2023-03-26T08:24:19.214Z,8.00
2023-03-26T08:27:37.778Z,7.90
2023-03-26T08:30:20.120Z,7.90
2023-03-26T08:32:58.203Z,7.80
2023-03-26T08:35:28.236Z,7.80
2023-03-26T08:37:55.194Z,7.80
2023-03-26T08:41:03.649Z,7.80
2023-03-26T08:44:25.784Z,7.90
2023-03-26T08:47:41.686Z,7.80
2023-03-26T08:50:36.224Z,7.80
2023-03-26T08:53:34.265Z,7.80
2023-03-26T08:56:27.311Z,7.80
2023-03-26T08:59:36.813Z,7.70
2023-03-26T09:02:50.930Z,7.70
2023-03-26T09:05:59.072Z,7.70
2023-03-26T09:08:54.250Z,7.70
2023-03-26T09:12:13.448Z,7.70
2023-03-26T09:15:26.187Z,7.70
2023-03-26T09:18:26.159Z,7.60
2023-03-26T09:21:22.118Z,7.60
2023-03-26T09:24:31.602Z,7.60
2023-03-26T09:27:51.703Z,7.60
2023-03-26T09:30:47.003Z,7.60
2023-03-26T09:33:52.220Z,7.60
2023-03-26T09:36:29.697Z,7.60
2023-03-26T09:39:37.367Z,7.70
2023-03-26T09:42:44.748Z,7.70
2023-03-26T09:45:54.390Z,7.70
2023-03-26T09:48:53.953Z,7.70
2023-03-26T09:52:10.334Z,7.70
2023-03-26T09:54:58.796Z,7.70
2023-03-26T09:58:23.365Z,7.60
2023-03-26T10:01:32.053Z,7.60
2023-03-26T10:04:37.818Z,7.50
2023-03-26T10:07:41.790Z,7.50
2023-03-26T10:10:42.985Z,7.50
2023-03-26T10:13:52.835Z,7.50
2023-03-26T10:16:37.749Z,7.50
2023-03-26T10:19:45.556Z,7.50
2023-03-26T10:23:08.164Z,7.60
2023-03-26T10:26:38.748Z,7.60
2023-03-26T10:29:53.754Z,7.50
2023-03-26T10:32:46.688Z,7.50
2023-03-26T10:35:45.271Z,7.50
2023-03-26T10:38:26.827Z,7.60
2023-03-26T10:41:36.420Z,7.60
2023-03-26T10:44:27.238Z,7.40
2023-03-26T10:47:31.852Z,7.50
2023-03-26T10:50:35.848Z,7.50
2023-03-26T10:53:36.158Z,7.60
2023-03-26T10:56:32.881Z,7.60
2023-03-26T10:59:08.060Z,7.70
2023-03-26T11:02:05.914Z,7.60
2023-03-26T11:05:13.949Z,7.50
2023-03-26T11:08:14.707Z,7.50
2023-03-26T11:17:39.495Z,7.60
2023-03-26T11:26:29.163Z,7.40
2023-03-26T11:29:46.030Z,7.40
2023-03-26T11:32:22.194Z,7.40
2023-03-26T11:35:17.183Z,7.50
2023-03-26T11:38:13.239Z,7.60
2023-03-26T11:40:50.483Z,7.60
2023-03-26T11:43:25.902Z,7.70
2023-03-26T11:45:53.730Z,7.80
2023-03-26T11:48:32.199Z,7.90
2023-03-26T11:51:10.171Z,8.00
2023-03-26T11:53:46.414Z,8.00
2023-03-26T11:56:28.522Z,8.10
2023-03-26T11:59:05.086Z,8.10
2023-03-26T12:01:50.872Z,8.10
2023-03-26T12:04:29.388Z,8.20
2023-03-26T12:07:21.010Z,8.10
2023-03-26T12:09:57.851Z,8.10
2023-03-26T12:12:47.908Z,8.10
2023-03-26T12:15:16.716Z,8.20
2023-03-26T12:17:43.523Z,8.10
2023-03-26T12:20:25.737Z,8.20
2023-03-26T12:22:59.170Z,8.30
2023-03-26T12:25:32.581Z,8.50
2023-03-26T12:28:14.510Z,8.70
2023-03-26T12:31:00.702Z,9.00
2023-03-26T12:33:34.576Z,9.30
2023-03-26T12:36:27.809Z,9.50
2023-03-26T12:39:42.669Z,9.70
2023-03-26T12:44:46.038Z,10.00
2023-03-26T12:44:49.092Z,10.20
2023-03-26T12:47:58.584Z,10.80
2023-03-26T12:50:17.612Z,11.30
2023-03-26T12:53:45.142Z,11.70
2023-03-26T12:56:49.948Z,12.10
2023-03-26T13:00:21.144Z,12.40
2023-03-26T13:03:21.140Z,12.50
2023-03-26T13:06:16.601Z,12.60
2023-03-26T13:09:18.094Z,12.80
2023-03-26T13:12:27.409Z,12.80
2023-03-26T13:15:18.742Z,13.00
2023-03-26T13:18:25.098Z,13.10
2023-03-26T13:21:06.331Z,13.10
2023-03-26T13:24:01.231Z,13.50
2023-03-26T13:26:49.830Z,13.40
2023-03-26T13:29:28.173Z,13.60
2023-03-26T13:32:42.700Z,13.50
2023-03-26T13:35:48.974Z,13.50
2023-03-26T13:38:59.083Z,13.50
2023-03-26T13:41:51.259Z,14.00
2023-03-26T13:44:47.298Z,14.60
2023-03-26T13:47:18.492Z,15.00
2023-03-26T13:50:31.323Z,15.00
2023-03-26T13:53:13.996Z,14.70
2023-03-26T13:55:55.287Z,14.50
2023-03-26T13:58:36.722Z,14.10
2023-03-26T14:01:22.998Z,13.90
2023-03-26T14:04:05.628Z,13.60
2023-03-26T14:06:53.898Z,13.40
2023-03-26T14:09:29.106Z,13.20
2023-03-26T14:11:56.626Z,12.90
2023-03-26T14:14:58.827Z,12.90
2023-03-26T14:17:48.386Z,12.70
2023-03-26T14:20:32.944Z,12.40
2023-03-26T14:23:17.038Z,12.20
2023-03-26T14:26:13.759Z,11.90
2023-03-26T14:29:14.289Z,11.70
2023-03-26T14:32:16.336Z,11.40
2023-03-26T14:35:33.447Z,11.30
2023-03-26T14:38:46.317Z,11.10
2023-03-26T14:41:58.953Z,13.40
2023-03-26T14:45:10.867Z,17.70
2023-03-26T14:48:31.447Z,20.70
2023-03-26T14:51:36.171Z,22.70
2023-03-26T14:54:11.992Z,23.70
2023-03-26T14:57:00.839Z,24.10
2023-03-26T15:00:02.092Z,24.00
2023-03-26T15:03:11.407Z,23.50
2023-03-26T15:06:21.040Z,22.80
2023-03-26T15:08:58.329Z,21.60
2023-03-26T15:12:12.110Z,20.70
2023-03-26T15:15:36.468Z,19.90
2023-03-26T15:18:43.712Z,18.80
2023-03-26T15:21:54.042Z,18.20
2023-03-26T15:24:26.750Z,17.80
2023-03-26T15:27:39.627Z,17.60
2023-03-26T15:31:06.445Z,17.70
2023-03-26T15:34:19.976Z,18.10
2023-03-26T15:37:15.109Z,18.90
2023-03-26T15:40:21.310Z,19.70
2023-03-26T15:43:14.366Z,20.90
2023-03-26T15:45:51.149Z,22.30
2023-03-26T15:48:50.814Z,23.60
2023-03-26T15:52:07.777Z,24.00
2023-03-26T15:54:47.767Z,24.90
2023-03-26T15:57:28.522Z,25.40
2023-03-26T16:00:22.660Z,25.90
2023-03-26T16:03:25.372Z,25.60
2023-03-26T16:06:19.199Z,25.00
2023-03-26T16:08:57.510Z,23.40
2023-03-26T16:12:27.381Z,21.30
2023-03-26T16:15:07.137Z,19.30
2023-03-26T16:18:10.199Z,17.70
2023-03-26T16:20:54.711Z,16.60
2023-03-26T16:23:55.049Z,15.70
2023-03-26T16:26:43.033Z,15.00
2023-03-26T16:29:27.950Z,13.70
2023-03-26T16:32:17.437Z,13.70
2023-03-26T16:35:02.046Z,13.20
2023-03-26T16:37:53.699Z,12.80
2023-03-26T16:40:32.278Z,12.60
2023-03-26T16:43:16.393Z,12.30
2023-03-26T16:46:09.326Z,12.20
2023-03-26T16:48:50.371Z,12.00
2023-03-26T16:51:37.004Z,11.90
2023-03-26T16:54:26.904Z,11.80
2023-03-26T16:57:22.512Z,11.60
2023-03-26T17:00:16.080Z,11.60
2023-03-26T17:03:17.716Z,11.40
2023-03-26T17:05:56.966Z,11.30
2023-03-26T17:08:53.437Z,11.20
2023-03-26T17:11:36.616Z,11.20
2023-03-26T17:14:15.973Z,11.10
2023-03-26T17:17:03.359Z,11.10
2023-03-26T17:19:56.176Z,11.00
2023-03-26T17:22:47.113Z,10.90
2023-03-26T17:26:04.494Z,10.90
2023-03-26T17:29:01.831Z,10.80
2023-03-26T17:31:48.775Z,10.70
2023-03-26T17:34:58.139Z,10.60
2023-03-26T17:37:30.766Z,10.60
2023-03-26T17:41:01.827Z,10.40
2023-03-26T17:43:51.221Z,10.40
2023-03-26T17:46:46.010Z,10.30
2023-03-26T17:49:31.043Z,10.20
2023-03-26T17:52:19.408Z,10.10
2023-03-26T17:54:51.148Z,10.00
2023-03-26T17:57:28.124Z,10.00
2023-03-26T17:59:59.460Z,9.90
2023-03-26T18:02:39.474Z,9.80
2023-03-26T18:05:11.157Z,9.80
2023-03-26T18:07:56.773Z,9.70
2023-03-26T18:10:48.136Z,9.60
2023-03-26T18:13:44.478Z,9.60
2023-03-26T18:16:21.059Z,9.50
2023-03-26T18:18:59.543Z,9.50
2023-03-26T18:21:39.176Z,9.60
2023-03-26T18:24:12.653Z,9.60
2023-03-26T18:26:48.440Z,9.60
2023-03-26T18:29:26.481Z,9.60
2023-03-26T18:32:14.687Z,9.70
2023-03-26T18:34:52.488Z,9.60
2023-03-26T18:37:31.711Z,9.60
2023-03-26T18:40:19.016Z,9.50
2023-03-26T18:42:56.275Z,9.40
2023-03-26T18:45:39.642Z,9.30
2023-03-26T18:48:17.848Z,9.20
2023-03-26T18:50:47.047Z,9.10
2023-03-26T18:53:23.447Z,9.10
2023-03-26T18:55:51.701Z,9.00
2023-03-26T18:58:36.704Z,8.90
2023-03-26T19:01:20.183Z,8.90
2023-03-26T19:03:53.540Z,8.80
2023-03-26T19:06:20.970Z,8.80
2023-03-26T19:08:48.570Z,8.70
2023-03-26T19:11:17.715Z,8.60
2023-03-26T19:13:57.990Z,8.60
2023-03-26T19:16:33.472Z,8.60
2023-03-26T19:19:05.394Z,8.60
2023-03-26T19:21:35.675Z,8.50
2023-03-26T19:24:04.794Z,8.50
2023-03-26T19:26:32.443Z,8.40
2023-03-26T19:29:00.647Z,8.30
2023-03-26T19:31:38.642Z,8.20
2023-03-26T19:34:34.898Z,8.20
2023-03-26T19:37:18.695Z,8.10
2023-03-26T19:40:17.487Z,8.00
2023-03-26T19:42:45.081Z,8.00
2023-03-26T19:45:20.174Z,8.00
2023-03-26T19:47:57.393Z,7.90
2023-03-26T19:50:42.063Z,7.90
2023-03-26T19:53:16.269Z,7.80
2023-03-26T19:56:14.967Z,7.80
2023-03-26T19:58:42.917Z,7.80
2023-03-26T20:01:21.657Z,7.50
2023-03-26T20:03:54.214Z,7.80
2023-03-26T20:06:30.762Z,7.70
2023-03-26T20:09:01.215Z,7.70
2023-03-26T20:11:39.008Z,7.60
2023-03-26T20:14:16.019Z,7.60
2023-03-26T20:16:45.358Z,7.60
2023-03-26T20:19:14.474Z,7.60
2023-03-26T20:21:41.770Z,7.50
2023-03-26T20:24:19.239Z,7.50
2023-03-26T20:26:47.281Z,7.50
2023-03-26T20:29:15.139Z,7.50
2023-03-26T20:31:43.217Z,7.50
2023-03-26T20:34:23.482Z,7.50
2023-03-26T20:36:56.918Z,7.50
2023-03-26T20:39:28.229Z,7.40
2023-03-26T20:41:56.218Z,7.40
2023-03-26T20:44:23.435Z,7.40
2023-03-26T20:46:51.286Z,7.40
2023-03-26T20:49:18.673Z,7.30
2023-03-26T20:51:46.386Z,7.20
2023-03-26T20:54:24.303Z,7.20
2023-03-26T20:56:52.288Z,7.30
2023-03-26T20:59:22.903Z,7.30
2023-03-26T21:01:51.117Z,7.20
2023-03-26T21:04:19.145Z,7.20
2023-03-26T21:06:46.649Z,7.20
2023-03-26T21:09:17.719Z,7.20
2023-03-26T21:12:16.746Z,7.20
2023-03-26T21:14:44.166Z,7.20
2023-03-26T21:17:20.021Z,7.30
2023-03-26T21:19:47.756Z,7.20
2023-03-26T21:22:34.948Z,7.30
2023-03-26T21:25:18.490Z,7.20
2023-03-26T21:27:53.951Z,7.20
2023-03-26T21:30:22.077Z,7.30
2023-03-26T21:32:49.563Z,7.30
2023-03-26T21:35:17.054Z,7.30
2023-03-26T21:37:48.448Z,7.30
2023-03-26T21:40:18.103Z,7.30
2023-03-26T21:42:52.100Z,7.20
2023-03-26T21:45:21.222Z,7.20
2023-03-26T21:47:49.834Z,7.20
2023-03-26T21:50:22.779Z,7.20
2023-03-26T21:52:51.709Z,7.20
2023-03-26T21:55:24.197Z,7.20
2023-03-26T21:58:46.541Z,7.20
2023-03-26T22:01:16.601Z,7.20
2023-03-26T22:04:21.245Z,7.20
2023-03-26T22:06:57.430Z,7.10
2023-03-26T22:09:33.957Z,7.10
2023-03-26T22:12:03.858Z,7.20
2023-03-26T22:14:30.756Z,7.20
2023-03-26T22:16:57.567Z,7.20
2023-03-26T22:19:24.326Z,7.20
2023-03-26T22:21:51.057Z,7.20
2023-03-26T22:24:17.846Z,7.20
2023-03-26T22:26:44.558Z,7.20
2023-03-26T22:29:11.955Z,7.20
2023-03-26T22:31:40.120Z,7.20
2023-03-26T22:34:07.718Z,7.20
2023-03-26T22:36:35.082Z,7.10
2023-03-26T22:39:02.357Z,7.10
2023-03-26T22:41:31.901Z,7.10
2023-03-26T22:44:09.438Z,7.10
2023-03-26T22:46:47.250Z,7.10
2023-03-26T22:49:14.041Z,7.10
2023-03-26T22:51:40.881Z,7.10
2023-03-26T22:54:07.680Z,7.10
2023-03-26T22:56:34.591Z,7.10
2023-03-26T22:59:01.331Z,7.10
2023-03-26T23:01:28.303Z,7.10
2023-03-26T23:03:55.081Z,7.10
2023-03-26T23:06:21.837Z,7.10
2023-03-26T23:08:48.768Z,7.20
2023-03-26T23:11:19.101Z,7.20
2023-03-26T23:13:47.488Z,7.20
2023-03-26T23:16:16.017Z,7.20
2023-03-26T23:18:43.880Z,7.10
2023-03-26T23:21:18.085Z,7.10
2023-03-26T23:23:46.151Z,7.10
2023-03-26T23:26:14.408Z,7.00
2023-03-26T23:28:43.710Z,7.00
2023-03-26T23:31:12.500Z,7.00
2023-03-26T23:33:45.832Z,6.90
2023-03-26T23:36:17.354Z,6.90
2023-03-26T23:38:46.958Z,6.90
2023-03-26T23:41:16.721Z,6.90
2023-03-26T23:43:53.617Z,6.90
2023-03-26T23:46:24.300Z,6.90
2023-03-26T23:48:52.187Z,6.90
2023-03-26T23:51:20.030Z,6.90
2023-03-26T23:53:48.959Z,6.90
2023-03-26T23:56:16.201Z,6.90
2023-03-26T23:58:43.279Z,6.80
